createdAt,value
2015-02-21T00:00:04.073Z,49
2015-02-21T00:00:17.494Z,49
2015-02-21T00:00:31.177Z,49
2015-02-21T00:00:44.705Z,49
2015-02-21T00:00:58.186Z,49
2015-02-21T00:01:11.683Z,49
2015-02-21T00:01:25.400Z,49
2015-02-21T00:01:39.084Z,49
2015-02-21T00:01:52.438Z,49
2015-02-21T00:02:05.968Z,49
2015-02-21T00:02:19.740Z,49
2015-02-21T00:02:33.109Z,49
2015-02-21T00:02:46.542Z,49
2015-02-21T00:03:00.474Z,49
2015-02-21T00:03:14.121Z,49
2015-02-21T00:03:27.701Z,49
2015-02-21T00:03:41.128Z,49
2015-02-21T00:03:54.814Z,49
2015-02-21T00:04:08.397Z,49
2015-02-21T00:04:21.801Z,49
2015-02-21T00:04:35.229Z,49
2015-02-21T00:04:48.755Z,50
2015-02-21T00:05:02.101Z,50
2015-02-21T00:05:15.500Z,50
2015-02-21T00:05:29.095Z,50
2015-02-21T00:05:42.610Z,50
2015-02-21T00:05:56.073Z,50
2015-02-21T00:06:09.460Z,50
2015-02-21T00:06:22.901Z,50
2015-02-21T00:06:36.389Z,50
2015-02-21T00:06:49.806Z,50
2015-02-21T00:07:03.224Z,50
2015-02-21T00:07:16.681Z,50
2015-02-21T00:07:30.078Z,50
2015-02-21T00:07:43.456Z,50
2015-02-21T00:07:56.923Z,50
2015-02-21T00:08:10.427Z,50
2015-02-21T00:08:24.137Z,50
2015-02-21T00:08:37.861Z,50
2015-02-21T00:08:51.259Z,50
2015-02-21T00:09:05.504Z,50
2015-02-21T00:09:23.406Z,50
2015-02-21T00:09:36.951Z,50
2015-02-21T00:09:50.448Z,50
2015-02-21T00:10:03.885Z,50
2015-02-21T00:10:17.343Z,50
2015-02-21T00:10:31.494Z,50
2015-02-21T00:10:45.021Z,50
2015-02-21T00:10:58.382Z,50
2015-02-21T00:11:11.837Z,50
2015-02-21T00:11:25.379Z,50
2015-02-21T00:11:38.778Z,50
2015-02-21T00:11:52.299Z,50
2015-02-21T00:12:06.822Z,50
2015-02-21T00:12:20.326Z,50
2015-02-21T00:12:33.796Z,50
2015-02-21T00:12:47.187Z,50
2015-02-21T00:13:00.911Z,50
2015-02-21T00:13:14.462Z,50
2015-02-21T00:13:27.850Z,50
2015-02-21T00:13:41.306Z,50
2015-02-21T00:13:54.810Z,50
2015-02-21T00:14:08.183Z,50
2015-02-21T00:14:21.589Z,49
2015-02-21T00:14:35.048Z,49
2015-02-21T00:14:48.544Z,47
2015-02-21T00:15:02.071Z,46
2015-02-21T00:15:15.510Z,45
2015-02-21T00:15:28.997Z,44
2015-02-21T00:15:42.533Z,44
2015-02-21T00:15:56.479Z,44
2015-02-21T00:16:10.012Z,43
2015-02-21T00:16:23.554Z,43
2015-02-21T00:16:36.992Z,41
2015-02-21T00:16:50.437Z,41
2015-02-21T00:17:04.309Z,40
2015-02-21T00:17:18.201Z,40
2015-02-21T00:17:31.678Z,41
2015-02-21T00:17:45.111Z,40
2015-02-21T00:17:58.613Z,40
2015-02-21T00:18:12.117Z,40
2015-02-21T00:18:25.497Z,39
2015-02-21T00:18:38.865Z,39
2015-02-21T00:18:52.308Z,39
2015-02-21T00:19:05.677Z,39
2015-02-21T00:19:19.006Z,38
2015-02-21T00:19:32.497Z,39
2015-02-21T00:19:45.903Z,38
2015-02-21T00:19:59.668Z,38
2015-02-21T00:20:13.061Z,37
2015-02-21T00:20:26.473Z,37
2015-02-21T00:20:39.901Z,37
2015-02-21T00:20:53.288Z,37
2015-02-21T00:21:06.795Z,37
2015-02-21T00:21:20.113Z,37
2015-02-21T00:21:33.505Z,37
2015-02-21T00:21:46.987Z,37
2015-02-21T00:22:00.367Z,37
2015-02-21T00:22:13.729Z,37
2015-02-21T00:22:27.213Z,36
2015-02-21T00:22:40.611Z,36
2015-02-21T00:22:53.942Z,36
2015-02-21T00:23:07.372Z,36
2015-02-21T00:23:20.739Z,36
2015-02-21T00:23:34.180Z,36
2015-02-21T00:23:47.544Z,37
2015-02-21T00:24:00.908Z,37
2015-02-21T00:24:14.389Z,37
2015-02-21T00:24:27.813Z,37
2015-02-21T00:24:41.177Z,37
2015-02-21T00:24:54.622Z,37
2015-02-21T00:25:11.005Z,37
2015-02-21T00:25:24.345Z,36
2015-02-21T00:25:37.749Z,36
2015-02-21T00:25:51.156Z,36
2015-02-21T00:26:04.532Z,35
2015-02-21T00:26:17.912Z,35
2015-02-21T00:26:31.247Z,35
2015-02-21T00:26:44.765Z,35
2015-02-21T00:26:58.220Z,35
2015-02-21T00:27:11.563Z,35
2015-02-21T00:27:25.001Z,34
2015-02-21T00:27:38.442Z,35
2015-02-21T00:27:51.800Z,35
2015-02-21T00:28:05.570Z,35
2015-02-21T00:28:19.031Z,36
2015-02-21T00:28:32.346Z,36
2015-02-21T00:28:46.179Z,36
2015-02-21T00:28:59.589Z,36
2015-02-21T00:29:13.043Z,36
2015-02-21T00:29:26.495Z,36
2015-02-21T00:29:39.821Z,36
2015-02-21T00:29:53.222Z,36
2015-02-21T00:30:06.653Z,36
2015-02-21T00:30:19.977Z,36
2015-02-21T00:30:33.352Z,36
2015-02-21T00:30:46.785Z,35
2015-02-21T00:31:00.139Z,34
2015-02-21T00:31:13.521Z,34
2015-02-21T00:31:26.985Z,35
2015-02-21T00:31:40.381Z,35
2015-02-21T00:31:53.837Z,35
2015-02-21T00:32:07.172Z,35
2015-02-21T00:32:20.577Z,35
2015-02-21T00:32:34.006Z,35
2015-02-21T00:32:47.348Z,35
2015-02-21T00:33:00.696Z,35
2015-02-21T00:33:14.146Z,35
2015-02-21T00:33:27.499Z,35
2015-02-21T00:33:40.846Z,35
2015-02-21T00:33:54.350Z,35
2015-02-21T00:34:07.782Z,35
2015-02-21T00:34:21.143Z,36
2015-02-21T00:34:34.543Z,36
2015-02-21T00:34:47.910Z,36
2015-02-21T00:35:01.337Z,35
2015-02-21T00:35:14.710Z,35
2015-02-21T00:35:28.038Z,35
2015-02-21T00:35:41.470Z,35
2015-02-21T00:35:54.889Z,35
2015-02-21T00:36:08.238Z,35
2015-02-21T00:36:21.689Z,35
2015-02-21T00:36:35.138Z,35
2015-02-21T00:36:48.467Z,36
2015-02-21T00:37:01.857Z,35
2015-02-21T00:37:15.322Z,36
2015-02-21T00:37:28.668Z,36
2015-02-21T00:37:42.069Z,36
2015-02-21T00:37:55.326Z,35
2015-02-21T00:38:08.740Z,35
2015-02-21T00:38:22.186Z,35
2015-02-21T00:38:35.542Z,35
2015-02-21T00:38:49.000Z,35
2015-02-21T00:39:02.491Z,35
2015-02-21T00:39:15.828Z,35
2015-02-21T00:39:29.189Z,35
2015-02-21T00:39:42.680Z,35
2015-02-21T00:39:56.026Z,35
2015-02-21T00:40:09.397Z,35
2015-02-21T00:40:23.273Z,35
2015-02-21T00:40:36.690Z,35
2015-02-21T00:40:50.170Z,35
2015-02-21T00:41:03.509Z,35
2015-02-21T00:41:16.888Z,35
2015-02-21T00:41:30.318Z,35
2015-02-21T00:41:43.649Z,35
2015-02-21T00:41:57.009Z,34
2015-02-21T00:42:10.458Z,34
2015-02-21T00:42:23.825Z,35
2015-02-21T00:42:37.156Z,35
2015-02-21T00:42:50.605Z,35
2015-02-21T00:43:04.018Z,35
2015-02-21T00:43:17.363Z,35
2015-02-21T00:43:30.797Z,35
2015-02-21T00:43:44.202Z,35
2015-02-21T00:43:57.519Z,35
2015-02-21T00:44:10.908Z,35
2015-02-21T00:44:24.375Z,35
2015-02-21T00:44:37.689Z,35
2015-02-21T00:44:51.073Z,35
2015-02-21T00:45:04.515Z,35
2015-02-21T00:45:17.887Z,35
2015-02-21T00:45:31.280Z,34
2015-02-21T00:45:44.736Z,34
2015-02-21T00:45:58.096Z,35
2015-02-21T00:46:11.498Z,35
2015-02-21T00:46:24.818Z,35
2015-02-21T00:46:38.132Z,35
2015-02-21T00:46:51.555Z,35
2015-02-21T00:47:05.245Z,34
2015-02-21T00:47:18.962Z,35
2015-02-21T00:47:32.755Z,35
2015-02-21T00:47:46.166Z,35
2015-02-21T00:47:59.508Z,34
2015-02-21T00:48:12.959Z,34
2015-02-21T00:48:26.387Z,34
2015-02-21T00:48:39.722Z,35
2015-02-21T00:48:53.130Z,34
2015-02-21T00:49:06.489Z,34
2015-02-21T00:49:19.916Z,34
2015-02-21T00:49:33.324Z,35
2015-02-21T00:49:46.674Z,35
2015-02-21T00:50:00.097Z,35
2015-02-21T00:50:13.510Z,35
2015-02-21T00:50:26.829Z,35
2015-02-21T00:50:40.224Z,35
2015-02-21T00:50:53.670Z,35
2015-02-21T00:51:07.008Z,35
2015-02-21T00:51:20.412Z,35
2015-02-21T00:51:33.899Z,34
2015-02-21T00:51:47.278Z,34
2015-02-21T00:52:00.654Z,34
2015-02-21T00:52:13.981Z,34
2015-02-21T00:52:27.407Z,34
2015-02-21T00:52:40.821Z,34
2015-02-21T00:52:54.119Z,35
2015-02-21T00:53:07.546Z,34
2015-02-21T00:53:20.980Z,34
2015-02-21T00:53:34.339Z,35
2015-02-21T00:53:47.743Z,35
2015-02-21T00:54:01.216Z,35
2015-02-21T00:54:14.568Z,35
2015-02-21T00:54:27.888Z,34
2015-02-21T00:54:41.274Z,35
2015-02-21T00:54:54.642Z,35
2015-02-21T00:55:08.069Z,34
2015-02-21T00:55:21.401Z,34
2015-02-21T00:55:34.767Z,34
2015-02-21T00:55:48.262Z,35
2015-02-21T00:56:01.638Z,35
2015-02-21T00:56:15.051Z,34
2015-02-21T00:56:28.485Z,34
2015-02-21T00:56:41.826Z,35
2015-02-21T00:56:55.140Z,35
2015-02-21T00:57:08.577Z,35
2015-02-21T00:57:21.965Z,35
2015-02-21T00:57:35.341Z,35
2015-02-21T00:57:48.703Z,35
2015-02-21T00:58:02.070Z,35
2015-02-21T00:58:15.531Z,34
2015-02-21T00:58:28.899Z,35
2015-02-21T00:58:42.209Z,35
2015-02-21T00:58:55.615Z,35
2015-02-21T00:59:09.014Z,35
2015-02-21T00:59:22.340Z,35
2015-02-21T00:59:35.747Z,35
2015-02-21T00:59:49.150Z,35
2015-02-21T01:00:02.497Z,35
2015-02-21T01:00:15.934Z,34
2015-02-21T01:00:29.311Z,35
2015-02-21T01:00:42.738Z,35
2015-02-21T01:00:56.153Z,35
2015-02-21T01:01:09.510Z,35
2015-02-21T01:01:22.906Z,35
2015-02-21T01:01:36.334Z,35
2015-02-21T01:01:49.665Z,35
2015-02-21T01:02:03.051Z,35
2015-02-21T01:02:16.482Z,35
2015-02-21T01:02:29.849Z,35
2015-02-21T01:02:43.246Z,35
2015-02-21T01:02:56.681Z,35
2015-02-21T01:03:10.035Z,35
2015-02-21T01:03:23.444Z,34
2015-02-21T01:03:36.765Z,34
2015-02-21T01:03:50.164Z,34
2015-02-21T01:04:03.590Z,34
2015-02-21T01:04:16.903Z,35
2015-02-21T01:04:30.260Z,35
2015-02-21T01:04:43.715Z,35
2015-02-21T01:04:57.096Z,35
2015-02-21T01:05:10.428Z,34
2015-02-21T01:05:23.866Z,34
2015-02-21T01:05:37.232Z,35
2015-02-21T01:05:50.555Z,35
2015-02-21T01:06:04.019Z,35
2015-02-21T01:06:17.392Z,35
2015-02-21T01:06:30.717Z,35
2015-02-21T01:06:44.174Z,35
2015-02-21T01:06:57.607Z,35
2015-02-21T01:07:10.952Z,35
2015-02-21T01:07:24.357Z,35
2015-02-21T01:07:37.796Z,35
2015-02-21T01:07:51.119Z,34
2015-02-21T01:08:04.515Z,34
2015-02-21T01:08:17.943Z,34
2015-02-21T01:08:31.278Z,34
2015-02-21T01:08:44.678Z,34
2015-02-21T01:08:58.071Z,34
2015-02-21T01:09:11.494Z,35
2015-02-21T01:09:24.963Z,34
2015-02-21T01:09:38.286Z,35
2015-02-21T01:09:51.639Z,35
2015-02-21T01:10:05.059Z,35
2015-02-21T01:10:18.955Z,35
2015-02-21T01:10:32.289Z,35
2015-02-21T01:10:45.708Z,34
2015-02-21T01:10:59.087Z,34
2015-02-21T01:11:12.449Z,34
2015-02-21T01:11:25.922Z,35
2015-02-21T01:11:39.356Z,35
2015-02-21T01:11:52.731Z,34
2015-02-21T01:12:06.081Z,35
2015-02-21T01:12:19.437Z,34
2015-02-21T01:12:32.832Z,34
2015-02-21T01:12:46.201Z,34
2015-02-21T01:12:59.533Z,34
2015-02-21T01:13:12.964Z,34
2015-02-21T01:13:26.366Z,35
2015-02-21T01:13:39.722Z,35
2015-02-21T01:13:53.110Z,35
2015-02-21T01:14:06.507Z,35
2015-02-21T01:14:19.814Z,35
2015-02-21T01:14:33.236Z,34
2015-02-21T01:14:46.585Z,34
2015-02-21T01:15:00.043Z,35
2015-02-21T01:15:13.494Z,34
2015-02-21T01:15:27.346Z,35
2015-02-21T01:15:40.783Z,34
2015-02-21T01:15:54.176Z,35
2015-02-21T01:16:07.506Z,35
2015-02-21T01:16:20.900Z,35
2015-02-21T01:16:34.360Z,35
2015-02-21T01:16:47.687Z,35
2015-02-21T01:17:01.040Z,34
2015-02-21T01:17:14.972Z,35
2015-02-21T01:17:28.337Z,35
2015-02-21T01:17:41.797Z,35
2015-02-21T01:17:55.141Z,35
2015-02-21T01:18:08.521Z,35
2015-02-21T01:18:21.966Z,35
2015-02-21T01:18:35.274Z,35
2015-02-21T01:18:48.644Z,35
2015-02-21T01:19:02.108Z,35
2015-02-21T01:19:15.484Z,35
2015-02-21T01:19:28.805Z,35
2015-02-21T01:19:42.270Z,35
2015-02-21T01:19:55.655Z,35
2015-02-21T01:20:09.005Z,35
2015-02-21T01:20:22.415Z,35
2015-02-21T01:20:35.764Z,34
2015-02-21T01:20:49.203Z,34
2015-02-21T01:21:02.546Z,35
2015-02-21T01:21:15.888Z,35
2015-02-21T01:21:29.299Z,35
2015-02-21T01:21:42.637Z,35
2015-02-21T01:21:55.938Z,35
2015-02-21T01:22:09.411Z,35
2015-02-21T01:22:22.820Z,35
2015-02-21T01:22:36.199Z,35
2015-02-21T01:22:49.604Z,35
2015-02-21T01:23:03.006Z,34
2015-02-21T01:23:16.370Z,35
2015-02-21T01:23:29.764Z,35
2015-02-21T01:23:43.111Z,35
2015-02-21T01:23:56.535Z,35
2015-02-21T01:24:09.931Z,34
2015-02-21T01:24:23.268Z,35
2015-02-21T01:24:36.765Z,35
2015-02-21T01:24:50.285Z,34
2015-02-21T01:25:03.692Z,34
2015-02-21T01:25:17.089Z,34
2015-02-21T01:25:30.514Z,35
2015-02-21T01:25:43.832Z,35
2015-02-21T01:25:57.213Z,35
2015-02-21T01:26:10.511Z,34
2015-02-21T01:26:23.949Z,34
2015-02-21T01:26:37.388Z,34
2015-02-21T01:26:50.729Z,34
2015-02-21T01:27:04.181Z,34
2015-02-21T01:27:17.683Z,35
2015-02-21T01:27:31.439Z,35
2015-02-21T01:27:44.817Z,35
2015-02-21T01:27:58.248Z,35
2015-02-21T01:28:11.586Z,35
2015-02-21T01:28:24.974Z,35
2015-02-21T01:28:38.427Z,35
2015-02-21T01:28:51.832Z,35
2015-02-21T01:29:05.189Z,35
2015-02-21T01:29:22.815Z,35
2015-02-21T01:29:36.210Z,35
2015-02-21T01:29:49.588Z,35
2015-02-21T01:30:03.017Z,35
2015-02-21T01:30:16.419Z,35
2015-02-21T01:30:29.740Z,35
2015-02-21T01:30:43.200Z,35
2015-02-21T01:30:56.662Z,35
2015-02-21T01:31:10.034Z,35
2015-02-21T01:31:23.404Z,35
2015-02-21T01:31:36.827Z,35
2015-02-21T01:31:50.211Z,35
2015-02-21T01:32:03.625Z,35
2015-02-21T01:32:16.941Z,35
2015-02-21T01:32:30.328Z,35
2015-02-21T01:32:43.774Z,35
2015-02-21T01:32:57.110Z,35
2015-02-21T01:33:10.462Z,35
2015-02-21T01:33:23.915Z,35
2015-02-21T01:33:37.279Z,35
2015-02-21T01:33:50.656Z,35
2015-02-21T01:34:04.079Z,34
2015-02-21T01:34:17.465Z,34
2015-02-21T01:34:31.403Z,35
2015-02-21T01:34:44.819Z,34
2015-02-21T01:34:58.174Z,35
2015-02-21T01:35:11.618Z,35
2015-02-21T01:35:24.970Z,35
2015-02-21T01:35:38.329Z,35
2015-02-21T01:35:51.777Z,35
2015-02-21T01:36:05.156Z,35
2015-02-21T01:36:18.485Z,35
2015-02-21T01:36:31.915Z,35
2015-02-21T01:36:45.304Z,34
2015-02-21T01:36:58.625Z,35
2015-02-21T01:37:12.047Z,35
2015-02-21T01:37:25.467Z,35
2015-02-21T01:37:38.833Z,35
2015-02-21T01:37:52.224Z,35
2015-02-21T01:38:06.364Z,35
2015-02-21T01:38:19.793Z,35
2015-02-21T01:38:33.166Z,34
2015-02-21T01:38:46.479Z,34
2015-02-21T01:38:59.879Z,34
2015-02-21T01:39:13.295Z,34
2015-02-21T01:39:26.600Z,34
2015-02-21T01:39:39.993Z,34
2015-02-21T01:39:53.448Z,35
2015-02-21T01:40:06.815Z,35
2015-02-21T01:40:20.223Z,35
2015-02-21T01:40:33.636Z,35
2015-02-21T01:40:46.963Z,35
2015-02-21T01:41:00.360Z,35
2015-02-21T01:41:13.721Z,34
2015-02-21T01:41:27.121Z,35
2015-02-21T01:41:40.537Z,35
2015-02-21T01:41:53.874Z,34
2015-02-21T01:42:07.227Z,35
2015-02-21T01:42:20.677Z,35
2015-02-21T01:42:34.048Z,35
2015-02-21T01:42:47.424Z,35
2015-02-21T01:43:00.902Z,35
2015-02-21T01:43:14.297Z,35
2015-02-21T01:43:27.724Z,35
2015-02-21T01:43:41.040Z,35
2015-02-21T01:43:54.431Z,35
2015-02-21T01:44:07.847Z,34
2015-02-21T01:44:21.181Z,35
2015-02-21T01:44:34.551Z,35
2015-02-21T01:44:47.990Z,35
2015-02-21T01:45:01.390Z,35
2015-02-21T01:45:14.744Z,35
2015-02-21T01:45:28.178Z,35
2015-02-21T01:45:41.577Z,34
2015-02-21T01:45:54.896Z,35
2015-02-21T01:46:08.347Z,35
2015-02-21T01:46:21.690Z,35
2015-02-21T01:46:35.133Z,34
2015-02-21T01:46:48.485Z,34
2015-02-21T01:47:01.813Z,34
2015-02-21T01:47:15.937Z,35
2015-02-21T01:47:29.381Z,35
2015-02-21T01:47:42.715Z,35
2015-02-21T01:47:56.137Z,34
2015-02-21T01:48:09.529Z,34
2015-02-21T01:48:22.841Z,35
2015-02-21T01:48:36.220Z,35
2015-02-21T01:48:49.650Z,35
2015-02-21T01:49:03.003Z,35
2015-02-21T01:49:16.322Z,35
2015-02-21T01:49:29.659Z,35
2015-02-21T01:49:43.111Z,34
2015-02-21T01:49:56.611Z,35
2015-02-21T01:50:09.952Z,35
2015-02-21T01:50:23.353Z,35
2015-02-21T01:50:36.784Z,35
2015-02-21T01:50:50.107Z,35
2015-02-21T01:51:03.470Z,35
2015-02-21T01:51:16.896Z,35
2015-02-21T01:51:30.243Z,35
2015-02-21T01:51:43.619Z,35
2015-02-21T01:51:57.077Z,35
2015-02-21T01:52:10.481Z,35
2015-02-21T01:52:23.823Z,35
2015-02-21T01:52:37.263Z,35
2015-02-21T01:52:50.681Z,35
2015-02-21T01:53:04.005Z,35
2015-02-21T01:53:17.411Z,35
2015-02-21T01:53:30.831Z,35
2015-02-21T01:53:44.165Z,35
2015-02-21T01:53:57.582Z,35
2015-02-21T01:54:11.003Z,35
2015-02-21T01:54:24.343Z,35
2015-02-21T01:54:37.752Z,35
2015-02-21T01:54:51.116Z,35
2015-02-21T01:55:04.543Z,35
2015-02-21T01:55:17.930Z,35
2015-02-21T01:55:31.240Z,35
2015-02-21T01:55:44.638Z,35
2015-02-21T01:55:58.087Z,35
2015-02-21T01:56:11.413Z,34
2015-02-21T01:56:24.810Z,34
2015-02-21T01:56:38.260Z,35
2015-02-21T01:56:51.622Z,35
2015-02-21T01:57:04.949Z,35
2015-02-21T01:57:18.399Z,35
2015-02-21T01:57:31.766Z,35
2015-02-21T01:57:45.188Z,35
2015-02-21T01:57:58.514Z,35
2015-02-21T01:58:11.853Z,35
2015-02-21T01:58:25.282Z,35
2015-02-21T01:58:38.637Z,35
2015-02-21T01:58:52.044Z,35
2015-02-21T01:59:05.520Z,35
2015-02-21T01:59:18.877Z,35
2015-02-21T01:59:32.171Z,35
2015-02-21T01:59:45.616Z,35
2015-02-21T01:59:59.009Z,35
2015-02-21T02:00:12.345Z,35
2015-02-21T02:00:25.766Z,35
2015-02-21T02:00:39.088Z,35
2015-02-21T02:00:52.531Z,35
2015-02-21T02:01:05.911Z,35
2015-02-21T02:01:19.311Z,35
2015-02-21T02:01:32.761Z,35
2015-02-21T02:01:46.144Z,35
2015-02-21T02:01:59.489Z,35
2015-02-21T02:02:12.930Z,35
2015-02-21T02:02:26.381Z,35
2015-02-21T02:02:39.695Z,35
2015-02-21T02:02:53.100Z,35
2015-02-21T02:03:06.540Z,35
2015-02-21T02:03:19.906Z,35
2015-02-21T02:03:33.319Z,35
2015-02-21T02:03:46.682Z,35
2015-02-21T02:04:00.126Z,35
2015-02-21T02:04:13.557Z,35
2015-02-21T02:04:27.263Z,35
2015-02-21T02:04:40.651Z,35
2015-02-21T02:04:54.090Z,35
2015-02-21T02:05:07.408Z,35
2015-02-21T02:05:20.769Z,35
2015-02-21T02:05:34.197Z,35
2015-02-21T02:05:47.591Z,35
2015-02-21T02:06:00.944Z,35
2015-02-21T02:06:15.013Z,35
2015-02-21T02:06:28.435Z,35
2015-02-21T02:06:41.865Z,35
2015-02-21T02:06:55.190Z,35
2015-02-21T02:07:08.561Z,35
2015-02-21T02:07:21.932Z,35
2015-02-21T02:07:35.301Z,35
2015-02-21T02:07:48.645Z,35
2015-02-21T02:08:02.096Z,35
2015-02-21T02:08:15.476Z,35
2015-02-21T02:08:28.793Z,35
2015-02-21T02:08:42.208Z,35
2015-02-21T02:08:55.613Z,35
2015-02-21T02:09:08.989Z,35
2015-02-21T02:09:22.320Z,35
2015-02-21T02:09:35.668Z,35
2015-02-21T02:09:49.091Z,35
2015-02-21T02:10:02.459Z,35
2015-02-21T02:10:15.769Z,35
2015-02-21T02:10:29.240Z,35
2015-02-21T02:10:42.629Z,35
2015-02-21T02:10:55.959Z,35
2015-02-21T02:11:09.365Z,35
2015-02-21T02:11:22.795Z,35
2015-02-21T02:11:36.094Z,35
2015-02-21T02:11:49.494Z,34
2015-02-21T02:12:02.852Z,35
2015-02-21T02:12:16.386Z,35
2015-02-21T02:12:29.801Z,35
2015-02-21T02:12:43.242Z,35
2015-02-21T02:12:56.634Z,35
2015-02-21T02:13:10.062Z,35
2015-02-21T02:13:23.369Z,35
2015-02-21T02:13:36.746Z,35
2015-02-21T02:13:50.174Z,35
2015-02-21T02:14:03.493Z,35
2015-02-21T02:14:16.860Z,35
2015-02-21T02:14:30.306Z,35
2015-02-21T02:14:43.685Z,35
2015-02-21T02:14:57.070Z,35
2015-02-21T02:15:10.508Z,35
2015-02-21T02:15:23.880Z,35
2015-02-21T02:15:37.210Z,35
2015-02-21T02:15:50.656Z,35
2015-02-21T02:16:03.964Z,35
2015-02-21T02:16:17.328Z,35
2015-02-21T02:16:30.773Z,35
2015-02-21T02:16:44.229Z,35
2015-02-21T02:16:57.573Z,35
2015-02-21T02:17:11.342Z,35
2015-02-21T02:17:24.815Z,35
2015-02-21T02:17:38.195Z,35
2015-02-21T02:17:51.575Z,35
2015-02-21T02:18:04.914Z,35
2015-02-21T02:18:18.317Z,35
2015-02-21T02:18:31.714Z,35
2015-02-21T02:18:45.057Z,35
2015-02-21T02:18:58.491Z,35
2015-02-21T02:19:11.980Z,35
2015-02-21T02:19:25.323Z,35
2015-02-21T02:19:38.708Z,35
2015-02-21T02:19:52.160Z,35
2015-02-21T02:20:05.494Z,35
2015-02-21T02:20:18.830Z,35
2015-02-21T02:20:32.220Z,35
2015-02-21T02:20:45.588Z,35
2015-02-21T02:20:59.017Z,35
2015-02-21T02:21:12.681Z,35
2015-02-21T02:21:26.080Z,35
2015-02-21T02:21:39.576Z,34
2015-02-21T02:21:52.965Z,34
2015-02-21T02:22:06.306Z,34
2015-02-21T02:22:26.110Z,35
2015-02-21T02:22:39.485Z,35
2015-02-21T02:22:52.807Z,35
2015-02-21T02:23:06.234Z,35
2015-02-21T02:23:19.648Z,35
2015-02-21T02:23:33.028Z,35
2015-02-21T02:23:46.391Z,35
2015-02-21T02:23:59.758Z,35
2015-02-21T02:24:13.189Z,34
2015-02-21T02:24:26.585Z,35
2015-02-21T02:24:39.904Z,35
2015-02-21T02:24:53.328Z,35
2015-02-21T02:25:06.701Z,35
2015-02-21T02:25:20.010Z,35
2015-02-21T02:25:33.412Z,34
2015-02-21T02:25:46.725Z,34
2015-02-21T02:26:00.045Z,34
2015-02-21T02:26:13.438Z,35
2015-02-21T02:26:26.866Z,35
2015-02-21T02:26:40.331Z,35
2015-02-21T02:26:53.713Z,35
2015-02-21T02:27:07.041Z,35
2015-02-21T02:27:20.450Z,35
2015-02-21T02:27:33.871Z,35
2015-02-21T02:27:47.164Z,35
2015-02-21T02:28:00.555Z,35
2015-02-21T02:28:13.984Z,35
2015-02-21T02:28:27.280Z,35
2015-02-21T02:28:40.651Z,35
2015-02-21T02:28:54.098Z,35
2015-02-21T02:29:07.434Z,35
2015-02-21T02:29:20.854Z,35
2015-02-21T02:29:34.163Z,35
2015-02-21T02:29:47.547Z,35
2015-02-21T02:30:00.991Z,35
2015-02-21T02:30:14.306Z,35
2015-02-21T02:30:27.669Z,34
2015-02-21T02:30:41.109Z,34
2015-02-21T02:30:54.490Z,34
2015-02-21T02:31:07.831Z,34
2015-02-21T02:31:21.258Z,34
2015-02-21T02:31:34.645Z,34
2015-02-21T02:31:47.990Z,35
2015-02-21T02:32:01.381Z,34
2015-02-21T02:32:14.756Z,35
2015-02-21T02:32:28.206Z,35
2015-02-21T02:32:41.536Z,34
2015-02-21T02:32:54.893Z,34
2015-02-21T02:33:08.336Z,34
2015-02-21T02:33:21.714Z,34
2015-02-21T02:33:35.103Z,35
2015-02-21T02:33:48.549Z,35
2015-02-21T02:34:01.977Z,35
2015-02-21T02:34:15.290Z,35
2015-02-21T02:34:28.683Z,34
2015-02-21T02:34:42.092Z,34
2015-02-21T02:34:55.456Z,34
2015-02-21T02:35:08.823Z,35
2015-02-21T02:35:22.136Z,35
2015-02-21T02:35:35.557Z,35
2015-02-21T02:35:48.931Z,35
2015-02-21T02:36:02.243Z,35
2015-02-21T02:36:15.635Z,35
2015-02-21T02:36:29.068Z,35
2015-02-21T02:36:42.985Z,35
2015-02-21T02:36:56.393Z,34
2015-02-21T02:37:09.850Z,35
2015-02-21T02:37:23.148Z,34
2015-02-21T02:37:36.494Z,35
2015-02-21T02:37:49.983Z,35
2015-02-21T02:38:03.337Z,34
2015-02-21T02:38:16.681Z,34
2015-02-21T02:38:30.106Z,35
2015-02-21T02:38:43.461Z,35
2015-02-21T02:38:56.779Z,34
2015-02-21T02:39:10.236Z,35
2015-02-21T02:39:23.639Z,35
2015-02-21T02:39:36.953Z,35
2015-02-21T02:39:50.386Z,35
2015-02-21T02:40:03.791Z,35
2015-02-21T02:40:17.102Z,35
2015-02-21T02:40:30.481Z,35
2015-02-21T02:40:43.821Z,35
2015-02-21T02:40:57.254Z,35
2015-02-21T02:41:10.645Z,35
2015-02-21T02:41:23.977Z,35
2015-02-21T02:41:37.385Z,34
2015-02-21T02:41:50.803Z,34
2015-02-21T02:42:04.116Z,35
2015-02-21T02:42:17.517Z,35
2015-02-21T02:42:31.152Z,35
2015-02-21T02:42:44.502Z,35
2015-02-21T02:42:57.881Z,35
2015-02-21T02:43:11.349Z,35
2015-02-21T02:43:24.682Z,35
2015-02-21T02:43:38.089Z,35
2015-02-21T02:43:51.452Z,35
2015-02-21T02:44:04.838Z,35
2015-02-21T02:44:18.273Z,35
2015-02-21T02:44:31.588Z,35
2015-02-21T02:44:44.963Z,35
2015-02-21T02:44:58.412Z,35
2015-02-21T02:45:11.789Z,35
2015-02-21T02:45:25.188Z,35
2015-02-21T02:45:38.643Z,34
2015-02-21T02:45:52.000Z,34
2015-02-21T02:46:05.330Z,34
2015-02-21T02:46:18.740Z,35
2015-02-21T02:46:32.108Z,35
2015-02-21T02:46:45.551Z,35
2015-02-21T02:46:58.907Z,35
2015-02-21T02:47:13.335Z,35
2015-02-21T02:47:26.782Z,35
2015-02-21T02:47:40.146Z,35
2015-02-21T02:47:53.468Z,34
2015-02-21T02:48:06.941Z,35
2015-02-21T02:48:20.358Z,34
2015-02-21T02:48:33.696Z,34
2015-02-21T02:48:47.136Z,35
2015-02-21T02:49:00.500Z,34
2015-02-21T02:49:13.796Z,34
2015-02-21T02:49:27.186Z,34
2015-02-21T02:49:40.632Z,35
2015-02-21T02:49:53.952Z,34
2015-02-21T02:50:07.310Z,35
2015-02-21T02:50:20.732Z,35
2015-02-21T02:50:34.076Z,35
2015-02-21T02:50:47.398Z,35
2015-02-21T02:51:00.845Z,35
2015-02-21T02:51:14.231Z,35
2015-02-21T02:51:27.591Z,35
2015-02-21T02:51:41.080Z,34
2015-02-21T02:51:54.502Z,34
2015-02-21T02:52:07.916Z,34
2015-02-21T02:52:21.259Z,34
2015-02-21T02:52:34.590Z,34
2015-02-21T02:52:48.088Z,34
2015-02-21T02:53:01.455Z,34
2015-02-21T02:53:14.780Z,34
2015-02-21T02:53:28.217Z,34
2015-02-21T02:53:41.622Z,34
2015-02-21T02:53:54.931Z,34
2015-02-21T02:54:08.360Z,35
2015-02-21T02:54:21.786Z,35
2015-02-21T02:54:35.133Z,35
2015-02-21T02:54:48.553Z,35
2015-02-21T02:55:02.640Z,35
2015-02-21T02:55:16.095Z,35
2015-02-21T02:55:29.498Z,35
2015-02-21T02:55:42.850Z,35
2015-02-21T02:55:56.281Z,35
2015-02-21T02:56:09.700Z,35
2015-02-21T02:56:23.026Z,34
2015-02-21T02:56:36.423Z,35
2015-02-21T02:56:49.855Z,35
2015-02-21T02:57:03.218Z,35
2015-02-21T02:57:16.582Z,35
2015-02-21T02:57:30.006Z,35
2015-02-21T02:57:43.391Z,35
2015-02-21T02:57:56.857Z,34
2015-02-21T02:58:10.176Z,34
2015-02-21T02:58:23.579Z,34
2015-02-21T02:58:37.015Z,35
2015-02-21T02:58:50.349Z,34
2015-02-21T02:59:03.722Z,34
2015-02-21T02:59:17.164Z,34
2015-02-21T02:59:30.518Z,34
2015-02-21T02:59:43.856Z,35
2015-02-21T02:59:57.290Z,35
2015-02-21T03:00:10.681Z,35
2015-02-21T03:00:23.988Z,35
2015-02-21T03:00:37.447Z,35
2015-02-21T03:00:50.861Z,35
2015-02-21T03:01:04.246Z,35
2015-02-21T03:01:17.665Z,35
2015-02-21T03:01:31.076Z,35
2015-02-21T03:01:44.405Z,35
2015-02-21T03:01:57.799Z,35
2015-02-21T03:02:11.236Z,35
2015-02-21T03:02:24.562Z,35
2015-02-21T03:02:37.948Z,35
2015-02-21T03:02:51.370Z,35
2015-02-21T03:03:04.716Z,35
2015-02-21T03:03:18.104Z,35
2015-02-21T03:03:31.526Z,35
2015-02-21T03:03:44.959Z,35
2015-02-21T03:03:58.409Z,35
2015-02-21T03:04:11.762Z,35
2015-02-21T03:04:25.136Z,35
2015-02-21T03:04:38.580Z,35
2015-02-21T03:04:51.917Z,35
2015-02-21T03:05:05.264Z,35
2015-02-21T03:05:18.666Z,35
2015-02-21T03:05:32.054Z,35
2015-02-21T03:05:45.347Z,35
2015-02-21T03:05:58.773Z,35
2015-02-21T03:06:12.184Z,35
2015-02-21T03:06:25.573Z,35
2015-02-21T03:06:38.947Z,35
2015-02-21T03:06:52.357Z,35
2015-02-21T03:07:05.795Z,35
2015-02-21T03:07:19.186Z,35
2015-02-21T03:07:32.530Z,35
2015-02-21T03:07:45.968Z,35
2015-02-21T03:07:59.384Z,35
2015-02-21T03:08:12.719Z,35
2015-02-21T03:08:26.151Z,35
2015-02-21T03:08:39.584Z,35
2015-02-21T03:08:52.898Z,35
2015-02-21T03:09:06.274Z,35
2015-02-21T03:09:19.621Z,35
2015-02-21T03:09:33.072Z,35
2015-02-21T03:09:46.504Z,35
2015-02-21T03:09:59.908Z,35
2015-02-21T03:10:13.250Z,35
2015-02-21T03:10:26.677Z,35
2015-02-21T03:10:40.004Z,35
2015-02-21T03:10:53.421Z,35
2015-02-21T03:11:06.872Z,35
2015-02-21T03:11:20.187Z,35
2015-02-21T03:11:33.573Z,35